createdAt,value
2023-02-06T00:00:49.080Z,102290.53
2023-02-06T00:03:16.167Z,102286.34
2023-02-06T00:05:43.078Z,102290.53
2023-02-06T00:08:10.102Z,102291.94
2023-02-06T00:10:37.070Z,102293.88
2023-02-06T00:13:04.112Z,102290.66
2023-02-06T00:15:31.142Z,102279.97
2023-02-06T00:17:58.380Z,102283.50
2023-02-06T00:20:25.391Z,102290.53
2023-02-06T00:22:52.360Z,102293.19
2023-02-06T00:25:19.219Z,102297.41
2023-02-06T00:27:46.254Z,102284.66
2023-02-06T00:30:13.499Z,102290.03
2023-02-06T00:32:40.593Z,102281.59
2023-02-06T00:35:08.341Z,102292.19
2023-02-06T00:37:35.348Z,102294.06
2023-02-06T00:40:02.327Z,102288.19
2023-02-06T00:42:29.430Z,102303.38
2023-02-06T00:44:56.276Z,102307.97
2023-02-06T00:47:23.250Z,102311.53
2023-02-06T00:49:50.720Z,102302.97
2023-02-06T00:52:19.333Z,102308.97
2023-02-06T00:54:46.295Z,102303.88
2023-02-06T00:57:13.217Z,102294.44
2023-02-06T00:59:41.479Z,102296.22
2023-02-06T01:02:08.353Z,102292.41
2023-02-06T01:04:35.312Z,102296.00
2023-02-06T01:07:02.220Z,102285.91
2023-02-06T01:09:31.159Z,102283.25
2023-02-06T01:11:58.014Z,102275.44
2023-02-06T01:14:26.401Z,102273.03
2023-02-06T01:16:53.303Z,102275.72
2023-02-06T01:19:20.450Z,102269.59
2023-02-06T01:21:47.391Z,102265.41
2023-02-06T01:24:16.196Z,102273.78
2023-02-06T01:26:44.041Z,102270.34
2023-02-06T01:29:10.905Z,102269.47
2023-02-06T01:31:37.855Z,102267.78
2023-02-06T01:34:04.717Z,102271.13
2023-02-06T01:36:31.682Z,102267.06
2023-02-06T01:38:58.636Z,102263.72
2023-02-06T01:41:25.823Z,102261.28
2023-02-06T01:44:16.300Z,102258.22
2023-02-06T01:46:46.702Z,102248.91
2023-02-06T01:49:21.533Z,102259.00
2023-02-06T01:51:50.302Z,102244.31
2023-02-06T01:54:17.446Z,102240.34
2023-02-06T01:56:48.597Z,102240.19
2023-02-06T01:59:15.796Z,102234.00
2023-02-06T02:01:42.985Z,102232.72
2023-02-06T02:04:15.049Z,102232.00
2023-02-06T02:06:42.051Z,102225.75
2023-02-06T02:09:09.180Z,102225.41
2023-02-06T02:11:41.836Z,102219.69
2023-02-06T02:14:11.123Z,102220.56
2023-02-06T02:16:49.408Z,102217.25
2023-02-06T02:19:38.265Z,102217.38
2023-02-06T02:22:27.090Z,102211.41
2023-02-06T02:25:09.410Z,102209.59
2023-02-06T02:28:16.379Z,102202.59
2023-02-06T02:31:16.337Z,102208.88
2023-02-06T02:34:04.921Z,102203.91
2023-02-06T02:36:38.452Z,102196.00
2023-02-06T02:39:27.240Z,102188.63
2023-02-06T02:42:07.332Z,102189.66
2023-02-06T02:44:43.828Z,102185.09
2023-02-06T02:47:12.458Z,102180.63
2023-02-06T02:49:39.872Z,102179.88
2023-02-06T02:52:06.934Z,102186.84
2023-02-06T02:54:33.859Z,102186.97
2023-02-06T02:57:06.394Z,102185.47
2023-02-06T02:59:38.853Z,102178.56
2023-02-06T03:02:08.963Z,102182.34
2023-02-06T03:04:54.078Z,102184.28
2023-02-06T03:07:39.782Z,102185.44
2023-02-06T03:10:26.921Z,102181.72
2023-02-06T03:13:21.753Z,102184.41
2023-02-06T03:16:30.942Z,102175.34
2023-02-06T03:19:20.754Z,102173.91
2023-02-06T03:21:48.663Z,102177.50
2023-02-06T03:24:24.884Z,102186.91
2023-02-06T03:26:56.923Z,102179.16
2023-02-06T03:29:24.628Z,102180.66
2023-02-06T03:32:16.983Z,102181.44
2023-02-06T03:34:43.783Z,102176.97
2023-02-06T03:37:11.118Z,102188.53
2023-02-06T03:39:38.717Z,102195.66
2023-02-06T03:42:06.224Z,102196.88
2023-02-06T03:44:40.504Z,102198.16
2023-02-06T03:47:08.393Z,102202.97
2023-02-06T03:49:35.957Z,102200.03
2023-02-06T03:52:06.688Z,102205.50
2023-02-06T03:54:36.469Z,102196.53
2023-02-06T03:57:04.950Z,102204.53
2023-02-06T03:59:32.037Z,102209.63
2023-02-06T04:02:01.078Z,102214.09
2023-02-06T04:04:31.203Z,102212.78
2023-02-06T04:07:01.062Z,102214.03
2023-02-06T04:09:27.944Z,102201.63
2023-02-06T04:11:54.966Z,102199.09
2023-02-06T04:14:21.831Z,102201.84
2023-02-06T04:16:48.928Z,102200.09
2023-02-06T04:19:15.832Z,102200.97
2023-02-06T04:21:42.866Z,102202.88
2023-02-06T04:24:09.848Z,102202.56
2023-02-06T04:26:36.866Z,102198.47
2023-02-06T04:29:03.750Z,102212.34
2023-02-06T04:31:30.995Z,102206.59
2023-02-06T04:33:57.895Z,102205.84
2023-02-06T04:36:24.934Z,102211.94
2023-02-06T04:38:51.841Z,102199.28
2023-02-06T04:41:18.790Z,102197.63
2023-02-06T04:43:45.766Z,102193.41
2023-02-06T04:46:12.896Z,102196.09
2023-02-06T04:48:39.809Z,102190.97
2023-02-06T04:51:06.810Z,102178.53
2023-02-06T04:53:34.020Z,102178.78
2023-02-06T04:56:06.358Z,102180.56
2023-02-06T04:58:34.040Z,102179.13
2023-02-06T05:01:01.459Z,102183.34
2023-02-06T05:03:29.855Z,102185.22
2023-02-06T05:05:59.567Z,102184.44
2023-02-06T05:08:27.052Z,102197.34
2023-02-06T05:10:54.118Z,102189.81
2023-02-06T05:13:21.702Z,102194.03
2023-02-06T05:15:49.197Z,102198.25
2023-02-06T05:18:16.271Z,102197.34
2023-02-06T05:20:43.838Z,102208.34
2023-02-06T05:23:11.002Z,102210.13
2023-02-06T05:25:38.537Z,102205.91
2023-02-06T05:28:07.464Z,102210.22
2023-02-06T05:30:35.008Z,102212.00
2023-02-06T05:33:02.069Z,102211.22
2023-02-06T05:35:29.313Z,102218.13
2023-02-06T05:37:57.683Z,102217.22
2023-02-06T05:40:24.945Z,102219.91
2023-02-06T05:42:51.918Z,102224.25
2023-02-06T05:45:18.872Z,102228.81
2023-02-06T05:47:46.439Z,102223.72
2023-02-06T05:50:13.270Z,102216.47
2023-02-06T05:52:40.232Z,102218.34
2023-02-06T05:55:07.834Z,102214.81
2023-02-06T05:57:35.069Z,102214.81
2023-02-06T06:00:02.486Z,102219.13
2023-02-06T06:02:38.632Z,102216.69
2023-02-06T06:05:05.967Z,102214.91
2023-02-06T06:07:33.016Z,102216.69
2023-02-06T06:09:59.937Z,102220.91
2023-02-06T06:12:26.805Z,102223.47
2023-02-06T06:14:53.763Z,102225.22
2023-02-06T06:17:21.172Z,102229.59
2023-02-06T06:19:48.149Z,102234.81
2023-02-06T06:22:15.050Z,102225.69
2023-02-06T06:24:41.936Z,102230.16
2023-02-06T06:27:10.827Z,102231.81
2023-02-06T06:29:37.886Z,102226.47
2023-02-06T06:32:05.089Z,102234.13
2023-02-06T06:34:33.406Z,102235.91
2023-02-06T06:37:00.369Z,102229.38
2023-02-06T06:39:27.310Z,102242.41
2023-02-06T06:41:54.268Z,102248.41
2023-02-06T06:44:21.397Z,102255.38
2023-02-06T06:46:48.476Z,102259.72
2023-02-06T06:49:15.466Z,102261.50
2023-02-06T06:51:42.321Z,102260.75
2023-02-06T06:54:09.255Z,102266.06
2023-02-06T06:56:36.251Z,102263.63
2023-02-06T06:59:03.443Z,102266.41
2023-02-06T07:01:30.370Z,102259.09
2023-02-06T07:03:59.182Z,102262.63
2023-02-06T07:06:26.225Z,102263.56
2023-02-06T07:08:53.410Z,102254.31
2023-02-06T07:11:20.447Z,102264.91
2023-02-06T07:13:47.494Z,102265.78
2023-02-06T07:16:14.544Z,102257.44
2023-02-06T07:18:43.109Z,102262.78
2023-02-06T07:21:10.635Z,102258.56
2023-02-06T07:23:38.559Z,102255.47
2023-02-06T07:26:05.856Z,102253.13
2023-02-06T07:28:33.581Z,102257.59
2023-02-06T07:31:02.118Z,102253.47
2023-02-06T07:33:29.254Z,102258.13
2023-02-06T07:35:56.219Z,102243.81
2023-02-06T07:38:23.658Z,102258.59
2023-02-06T07:40:50.978Z,102262.25
2023-02-06T07:43:17.958Z,102254.06
2023-02-06T07:45:45.448Z,102261.13
2023-02-06T07:48:12.476Z,102259.72
2023-02-06T07:50:39.497Z,102265.06
2023-02-06T07:53:07.959Z,102267.81
2023-02-06T07:55:37.823Z,102268.16
2023-02-06T07:58:04.989Z,102274.41
2023-02-06T08:00:31.952Z,102278.03
2023-02-06T08:02:58.946Z,102269.63
2023-02-06T08:05:25.930Z,102282.50
2023-02-06T08:07:52.928Z,102285.16
2023-02-06T08:10:19.954Z,102283.72
2023-02-06T08:12:46.920Z,102276.50
2023-02-06T08:15:14.010Z,102275.34
2023-02-06T08:17:42.842Z,102276.38
2023-02-06T08:20:10.997Z,102276.13
2023-02-06T08:22:38.681Z,102290.59
2023-02-06T08:25:06.472Z,102284.69
2023-02-06T08:27:33.449Z,102276.25
2023-02-06T08:30:01.231Z,102277.03
2023-02-06T08:32:33.191Z,102274.69
2023-02-06T08:35:00.521Z,102276.72
2023-02-06T08:37:27.775Z,102276.13
2023-02-06T08:39:54.810Z,102281.25
2023-02-06T08:42:21.870Z,102271.13
2023-02-06T08:44:48.776Z,102267.78
2023-02-06T08:47:17.045Z,102275.56
2023-02-06T08:49:43.973Z,102282.59
2023-02-06T08:52:11.258Z,102274.22
2023-02-06T08:54:39.000Z,102287.34
2023-02-06T08:57:06.913Z,102300.34
2023-02-06T08:59:34.982Z,102295.69
2023-02-06T09:02:02.090Z,102290.84
2023-02-06T09:04:32.653Z,102300.47
2023-02-06T09:06:59.704Z,102291.88
2023-02-06T09:09:26.694Z,102297.50
2023-02-06T09:11:55.547Z,102298.91
2023-02-06T09:14:22.614Z,102299.75
2023-02-06T09:16:49.589Z,102305.47
2023-02-06T09:19:16.527Z,102298.50
2023-02-06T09:21:43.524Z,102294.56
2023-02-06T09:24:10.808Z,102282.84
2023-02-06T09:26:58.101Z,102281.97
2023-02-06T09:29:29.040Z,102292.22
2023-02-06T09:31:57.676Z,102281.66
2023-02-06T09:34:26.164Z,102292.63
2023-02-06T09:36:57.831Z,102287.28
2023-02-06T09:39:25.385Z,102282.41
2023-02-06T09:41:55.470Z,102290.56
2023-02-06T09:44:30.222Z,102295.03
2023-02-06T09:47:02.329Z,102296.00
2023-02-06T09:49:36.028Z,102290.22
2023-02-06T09:52:09.117Z,102293.19
2023-02-06T09:54:54.889Z,102290.72
2023-02-06T09:57:36.323Z,102298.88
2023-02-06T10:00:24.659Z,102305.69
2023-02-06T10:03:23.619Z,102301.69
2023-02-06T10:06:05.794Z,102296.41
2023-02-06T10:08:43.720Z,102304.81
2023-02-06T10:11:22.261Z,102309.16
2023-02-06T10:13:54.533Z,102314.38
2023-02-06T10:16:41.982Z,102315.56
2023-02-06T10:19:44.095Z,102317.25
2023-02-06T10:22:48.349Z,102320.69
2023-02-06T10:25:18.830Z,102312.81
2023-02-06T10:27:48.173Z,102328.88
2023-02-06T10:30:18.137Z,102341.69
2023-02-06T10:33:11.814Z,102344.78
2023-02-06T10:35:56.645Z,102334.63
2023-02-06T10:38:26.175Z,102334.06
2023-02-06T10:41:19.335Z,102326.94
2023-02-06T10:43:52.290Z,102336.84
2023-02-06T10:46:38.906Z,102338.94
2023-02-06T10:49:11.239Z,102344.06
2023-02-06T10:51:44.688Z,102349.50
2023-02-06T10:54:24.767Z,102333.09
2023-02-06T10:56:53.014Z,102338.22
2023-02-06T10:59:35.270Z,102339.59
2023-02-06T11:02:08.042Z,102343.66
2023-02-06T11:04:44.131Z,102339.50
2023-02-06T11:07:25.124Z,102338.81
2023-02-06T11:09:53.185Z,102342.47
2023-02-06T11:12:32.848Z,102340.31
2023-02-06T11:15:05.073Z,102331.06
2023-02-06T11:17:32.145Z,102332.25
2023-02-06T11:20:12.406Z,102333.22
2023-02-06T11:22:51.303Z,102334.59
2023-02-06T11:25:27.322Z,102342.91
2023-02-06T11:27:55.219Z,102341.13
2023-02-06T11:30:35.114Z,102339.53
2023-02-06T11:33:08.407Z,102342.38
2023-02-06T11:35:41.626Z,102346.41
2023-02-06T11:38:16.587Z,102339.88
2023-02-06T11:40:44.598Z,102335.81
2023-02-06T11:43:26.078Z,102326.91
2023-02-06T11:46:08.328Z,102336.69
2023-02-06T11:48:41.365Z,102331.44
2023-02-06T11:51:09.468Z,102329.06
2023-02-06T11:53:37.655Z,102323.53
2023-02-06T11:56:14.275Z,102323.19
2023-02-06T11:58:41.189Z,102317.75
2023-02-06T12:01:17.696Z,102321.53
2023-02-06T12:03:50.394Z,102317.19
2023-02-06T12:06:29.383Z,102310.56
2023-02-06T12:08:59.078Z,102312.41
2023-02-06T12:11:33.764Z,102306.09
2023-02-06T12:14:29.955Z,102305.06
2023-02-06T12:16:57.736Z,102303.66
2023-02-06T12:19:35.526Z,102313.75
2023-02-06T12:22:12.965Z,102301.69
2023-02-06T12:24:46.229Z,102295.47
2023-02-06T12:27:24.259Z,102299.44
2023-02-06T12:29:59.196Z,102303.25
2023-02-06T12:32:33.292Z,102294.94
2023-02-06T12:35:14.596Z,102287.22
2023-02-06T12:37:45.912Z,102289.09
2023-02-06T12:40:38.375Z,102292.56
2023-02-06T12:43:17.876Z,102289.09
2023-02-06T12:45:44.904Z,102282.06
2023-02-06T12:48:31.162Z,102280.31
2023-02-06T12:51:19.461Z,102278.00
2023-02-06T12:53:50.952Z,102287.81
2023-02-06T12:56:27.170Z,102281.63
2023-02-06T12:59:06.177Z,102285.16
2023-02-06T13:01:45.531Z,102289.63
2023-02-06T13:04:19.308Z,102288.84
2023-02-06T13:06:56.261Z,102283.81
2023-02-06T13:09:27.214Z,102284.53
2023-02-06T13:11:54.294Z,102281.56
2023-02-06T13:14:24.465Z,102285.41
2023-02-06T13:17:17.773Z,102288.59
2023-02-06T13:19:44.778Z,102297.75
2023-02-06T13:22:13.178Z,102299.78
2023-02-06T13:24:41.751Z,102296.69
2023-02-06T13:27:08.621Z,102310.84
2023-02-06T13:29:44.256Z,102306.22
2023-02-06T13:32:11.731Z,102318.81
2023-02-06T13:34:44.526Z,102314.19
2023-02-06T13:37:29.947Z,102317.47
2023-02-06T13:40:30.871Z,102329.53
2023-02-06T13:43:23.879Z,102331.75
2023-02-06T13:45:57.298Z,102327.84
2023-02-06T13:48:24.343Z,102336.84
2023-02-06T13:51:22.118Z,102328.75
2023-02-06T13:54:08.169Z,102341.00
2023-02-06T13:57:04.998Z,102344.19
2023-02-06T13:59:35.663Z,102334.50
2023-02-06T14:02:28.787Z,102347.69
2023-02-06T14:04:57.781Z,102338.97
2023-02-06T14:07:31.717Z,102355.38
2023-02-06T14:10:21.936Z,102342.13
2023-02-06T14:13:03.657Z,102338.06
2023-02-06T14:15:42.341Z,102344.19
2023-02-06T14:18:21.413Z,102354.28
2023-02-06T14:21:11.782Z,102353.19
2023-02-06T14:24:29.819Z,102360.72
2023-02-06T14:27:05.782Z,102365.75
2023-02-06T14:30:05.067Z,102352.22
2023-02-06T14:33:00.519Z,102362.59
2023-02-06T14:35:49.261Z,102347.97
2023-02-06T14:38:31.811Z,102366.06
2023-02-06T14:41:00.128Z,102367.03
2023-02-06T14:43:31.467Z,102363.47
2023-02-06T14:46:07.477Z,102362.38
2023-02-06T14:48:40.172Z,102364.88
2023-02-06T14:51:07.315Z,102365.16
2023-02-06T14:53:39.442Z,102362.50
2023-02-06T14:56:22.397Z,102380.22
2023-02-06T14:58:51.405Z,102379.91
2023-02-06T15:01:18.308Z,102375.28
2023-02-06T15:03:46.549Z,102372.50
2023-02-06T15:06:17.651Z,102371.44
2023-02-06T15:08:51.437Z,102368.88
2023-02-06T15:11:32.694Z,102369.84
2023-02-06T15:14:03.176Z,102373.50
2023-02-06T15:16:31.178Z,102378.53
2023-02-06T15:19:25.383Z,102383.50
2023-02-06T15:22:04.549Z,102378.84
2023-02-06T15:24:44.697Z,102383.63
2023-02-06T15:27:14.971Z,102385.16
2023-02-06T15:29:47.796Z,102385.09
2023-02-06T15:32:34.408Z,102393.59
2023-02-06T15:35:02.275Z,102396.84
2023-02-06T15:37:34.470Z,102403.47
2023-02-06T15:40:46.676Z,102415.03
2023-02-06T15:43:20.270Z,102415.41
2023-02-06T15:45:50.351Z,102428.94
2023-02-06T15:48:18.530Z,102439.88
2023-02-06T15:51:23.967Z,102440.59
2023-02-06T15:53:53.537Z,102437.94
2023-02-06T15:56:25.452Z,102442.06
2023-02-06T15:59:01.234Z,102456.50
2023-02-06T16:01:31.750Z,102469.41
2023-02-06T16:04:06.188Z,102474.66
2023-02-06T16:06:33.313Z,102480.00
2023-02-06T16:09:03.207Z,102474.16
2023-02-06T16:11:51.350Z,102474.38
2023-02-06T16:14:26.607Z,102471.03
2023-02-06T16:16:58.765Z,102470.63
2023-02-06T16:19:36.730Z,102474.66
2023-02-06T16:22:06.277Z,102479.69
2023-02-06T16:24:33.185Z,102464.97
2023-02-06T16:27:15.860Z,102471.69
2023-02-06T16:29:47.035Z,102475.25
2023-02-06T16:32:17.911Z,102468.22
2023-02-06T16:34:46.363Z,102458.94
2023-02-06T16:37:22.274Z,102465.66
2023-02-06T16:39:49.723Z,102454.41
2023-02-06T16:42:23.297Z,102448.25
2023-02-06T16:44:55.040Z,102451.84
2023-02-06T16:47:22.608Z,102460.81
2023-02-06T16:49:49.937Z,102461.72
2023-02-06T16:52:25.750Z,102458.94
2023-02-06T16:54:55.888Z,102447.91
2023-02-06T16:57:29.115Z,102457.16
2023-02-06T16:59:56.716Z,102462.19
2023-02-06T17:02:24.070Z,102477.59
2023-02-06T17:04:51.385Z,102491.81
2023-02-06T17:07:21.736Z,102487.25
2023-02-06T17:09:49.902Z,102482.91
2023-02-06T17:12:19.420Z,102479.34
2023-02-06T17:14:46.921Z,102488.03
2023-02-06T17:17:16.100Z,102491.41
2023-02-06T17:19:43.808Z,102479.44
2023-02-06T17:22:11.775Z,102483.69
2023-02-06T17:24:39.017Z,102472.72
2023-02-06T17:27:07.697Z,102472.63
2023-02-06T17:29:35.387Z,102463.53
2023-02-06T17:32:03.052Z,102479.03
2023-02-06T17:34:30.422Z,102478.72
2023-02-06T17:36:57.614Z,102481.19
2023-02-06T17:39:25.172Z,102476.53
2023-02-06T17:41:52.281Z,102484.00
2023-02-06T17:44:20.194Z,102478.78
2023-02-06T17:46:49.191Z,102494.38
2023-02-06T17:49:16.805Z,102490.44
2023-02-06T17:51:44.806Z,102488.00
2023-02-06T17:54:12.832Z,102482.88
2023-02-06T17:56:40.155Z,102493.00
2023-02-06T17:59:07.293Z,102487.78
2023-02-06T18:01:34.577Z,102484.34
2023-02-06T18:04:01.646Z,102491.94
2023-02-06T18:06:34.293Z,102493.50
2023-02-06T18:09:01.435Z,102499.50
2023-02-06T18:11:28.692Z,102490.91
2023-02-06T18:13:56.077Z,102483.22
2023-02-06T18:16:26.275Z,102485.59
2023-02-06T18:18:55.172Z,102470.88
2023-02-06T18:21:25.100Z,102476.13
2023-02-06T18:23:53.701Z,102493.97
2023-02-06T18:26:22.233Z,102486.16
2023-02-06T18:28:51.539Z,102499.97
2023-02-06T18:31:29.484Z,102493.06
2023-02-06T18:33:58.833Z,102485.59
2023-02-06T18:36:28.873Z,102484.59
2023-02-06T18:38:57.145Z,102491.53
2023-02-06T18:41:42.521Z,102485.50
2023-02-06T18:44:10.718Z,102475.34
2023-02-06T18:46:38.552Z,102469.31
2023-02-06T18:49:05.825Z,102463.88
2023-02-06T18:51:33.195Z,102472.13
2023-02-06T18:54:00.530Z,102471.94
2023-02-06T18:56:27.861Z,102482.97
2023-02-06T18:58:55.932Z,102484.75
2023-02-06T19:01:24.917Z,102475.97
2023-02-06T19:03:53.074Z,102475.06
2023-02-06T19:06:23.046Z,102481.56
2023-02-06T19:08:50.350Z,102495.97
2023-02-06T19:11:17.642Z,102497.31
2023-02-06T19:13:44.830Z,102494.84
2023-02-06T19:16:18.035Z,102491.59
2023-02-06T19:18:48.806Z,102486.59
2023-02-06T19:21:18.166Z,102483.22
2023-02-06T19:23:47.042Z,102479.97
2023-02-06T19:26:16.587Z,102466.16
2023-02-06T19:28:45.949Z,102466.06
2023-02-06T19:31:14.281Z,102476.31
2023-02-06T19:33:42.176Z,102483.22
2023-02-06T19:36:11.710Z,102480.75
2023-02-06T19:38:39.732Z,102477.41
2023-02-06T19:41:16.044Z,102481.75
2023-02-06T19:43:43.015Z,102474.06
2023-02-06T19:46:12.363Z,102473.06
2023-02-06T19:48:42.232Z,102463.59
2023-02-06T19:51:11.769Z,102476.09
2023-02-06T19:53:45.275Z,102471.75
2023-02-06T19:56:13.286Z,102475.13
2023-02-06T19:58:41.716Z,102481.22
2023-02-06T20:01:10.932Z,102475.13
2023-02-06T20:03:38.244Z,102481.13
2023-02-06T20:06:07.629Z,102478.56
2023-02-06T20:08:34.648Z,102481.22
2023-02-06T20:11:10.672Z,102482.13
2023-02-06T20:13:38.152Z,102477.00
2023-02-06T20:16:07.291Z,102473.22
2023-02-06T20:18:37.454Z,102471.53
2023-02-06T20:21:05.061Z,102483.38
2023-02-06T20:23:37.507Z,102481.47
2023-02-06T20:26:04.748Z,102481.47
2023-02-06T20:28:32.052Z,102481.28
2023-02-06T20:30:59.892Z,102482.84
2023-02-06T20:33:27.502Z,102476.81
2023-02-06T20:35:55.022Z,102488.75
2023-02-06T20:38:22.866Z,102494.88
2023-02-06T20:40:55.223Z,102492.19
2023-02-06T20:43:24.129Z,102488.97
2023-02-06T20:45:52.962Z,102492.53
2023-02-06T20:48:19.927Z,102480.50
2023-02-06T20:50:47.033Z,102480.59
2023-02-06T20:53:14.183Z,102481.38
2023-02-06T20:55:44.288Z,102475.44
2023-02-06T20:58:11.245Z,102481.19
2023-02-06T21:00:38.458Z,102477.91
2023-02-06T21:03:05.659Z,102488.19
2023-02-06T21:05:32.840Z,102484.03
2023-02-06T21:08:00.122Z,102483.16
2023-02-06T21:10:28.047Z,102476.06
2023-02-06T21:12:54.954Z,102479.84
2023-02-06T21:15:22.115Z,102491.34
2023-02-06T21:17:49.548Z,102495.47
2023-02-06T21:20:16.867Z,102487.56
2023-02-06T21:22:44.045Z,102489.03
2023-02-06T21:25:11.164Z,102489.69
2023-02-06T21:27:41.801Z,102490.38
2023-02-06T21:30:09.523Z,102490.16
2023-02-06T21:32:36.646Z,102492.50
2023-02-06T21:35:03.959Z,102498.41
2023-02-06T21:37:30.982Z,102498.28
2023-02-06T21:39:58.040Z,102509.53
2023-02-06T21:42:27.656Z,102515.56
2023-02-06T21:44:54.694Z,102522.34
2023-02-06T21:47:22.091Z,102526.59
2023-02-06T21:49:49.311Z,102526.47
2023-02-06T21:52:16.353Z,102524.03
2023-02-06T21:54:43.393Z,102531.63
2023-02-06T21:57:10.445Z,102527.47
2023-02-06T21:59:38.544Z,102524.16
2023-02-06T22:02:05.441Z,102525.03
2023-02-06T22:04:32.467Z,102530.97
2023-02-06T22:06:59.408Z,102539.41
2023-02-06T22:09:26.443Z,102531.06
2023-02-06T22:11:54.249Z,102534.28
2023-02-06T22:14:21.746Z,102532.41
2023-02-06T22:16:48.762Z,102529.94
2023-02-06T22:19:16.604Z,102526.81
2023-02-06T22:21:43.669Z,102534.84
2023-02-06T22:24:12.016Z,102527.03
2023-02-06T22:26:39.514Z,102521.13
2023-02-06T22:29:08.018Z,102516.91
2023-02-06T22:31:35.544Z,102523.13
2023-02-06T22:34:03.181Z,102520.69
2023-02-06T22:36:32.212Z,102522.56
2023-02-06T22:39:02.163Z,102513.19
2023-02-06T22:41:30.032Z,102515.75
2023-02-06T22:43:57.432Z,102506.38
2023-02-06T22:46:32.597Z,102508.31
2023-02-06T22:49:00.386Z,102504.25
2023-02-06T22:51:27.905Z,102504.94
2023-02-06T22:53:55.204Z,102506.63
2023-02-06T22:56:27.910Z,102516.88
2023-02-06T22:59:10.897Z,102510.88
2023-02-06T23:01:52.287Z,102519.44
2023-02-06T23:04:24.733Z,102524.47
2023-02-06T23:06:52.066Z,102523.34
2023-02-06T23:09:25.694Z,102522.47
2023-02-06T23:11:53.296Z,102528.72
2023-02-06T23:14:20.806Z,102520.00
2023-02-06T23:16:48.551Z,102519.09
2023-02-06T23:19:15.952Z,102524.25
2023-02-06T23:21:44.400Z,102513.09
2023-02-06T23:24:15.903Z,102511.41
2023-02-06T23:26:47.827Z,102511.19
2023-02-06T23:29:17.288Z,102512.09
2023-02-06T23:31:48.223Z,102515.31
2023-02-06T23:34:16.278Z,102515.31
2023-02-06T23:36:43.255Z,102524.69
2023-02-06T23:39:11.824Z,102517.88
2023-02-06T23:41:39.085Z,102516.22
2023-02-06T23:44:07.414Z,102519.66
2023-02-06T23:46:36.395Z,102524.69
2023-02-06T23:49:04.005Z,102528.03
2023-02-06T23:51:32.023Z,102523.56
2023-02-06T23:53:59.413Z,102524.59
2023-02-06T23:56:28.428Z,102520.34
2023-02-06T23:58:56.532Z,102527.16
